Terminal Aerodrome Forecast
Issued by NWS Lake Charles, LA

Home | Current Version | Previous Version | Text Only | Print | Product List | Glossary On
Versions: 1 2 3 4 5 6 7 8 9 10 11 12 13 14 15 16 17 18 19 20 21 22 23 24 25
231
FTUS44 KLCH 082008 AAA
TAFARA
TAF AMD
KARA 082008Z 0820/0918 01015G22KT P6SM VCSH OVC070
      TEMPO 0820/0822 5SM -RA BR
     FM082300 02015KT P6SM BKN070
     FM090600 02010KT P6SM BKN150=

USA.gov is the U.S. government's official web portal to all federal, state and local government web resources and services.